Time;durP1;ratioP1;P1;durP2;ratioP2;P2;SDS_P1;SDS_P2;PMS_P1;PMS_P2;Temp;Humidity;BMP_temperature;BMP_pressure;BME280_temperature;BME280_humidity;BME280_pressure;Samples;Min_cycle;Max_cycle;Signal;HPM_P1;HPM_P2
2022/10/22 00:01:54;;;;;;;61.03;2.80;;;;;;;;;;5112954;28;20452;-72
2022/10/22 00:04:21;;;;;;;58.77;3.03;;;;;;;;;;5112968;28;20819;-72
2022/10/22 00:06:49;;;;;;;57.87;2.43;;;;;;;;;;5112958;28;20464;-71
2022/10/22 00:09:17;;;;;;;58.40;2.60;;;;;;;;;;5112512;28;20934;-72
2022/10/22 00:11:44;;;;;;;57.87;2.63;;;;;;;;;;5112806;28;20949;-72
2022/10/22 00:14:12;;;;;;;60.07;3.00;;;;;;;;;;5112991;28;20441;-73
2022/10/22 00:16:39;;;;;;;57.67;2.47;;;;;;;;;;5112657;28;20491;-71
2022/10/22 00:19:08;;;;;;;57.77;2.50;;;;;;;;;;5112290;28;20875;-71
2022/10/22 00:21:35;;;;;;;57.97;2.80;;;;;;;;;;5112534;28;20482;-71
2022/10/22 00:24:02;;;;;;;58.87;2.70;;;;;;;;;;5112511;28;20987;-71
2022/10/22 00:26:30;;;;;;;58.23;3.40;;;;;;;;;;5112565;27;20458;-71
2022/10/22 00:28:57;;;;;;;57.87;2.40;;;;;;;;;;5112493;28;20456;-72
2022/10/22 00:31:25;;;;;;;57.87;2.60;;;;;;;;;;5112431;28;20445;-71
2022/10/22 00:33:52;;;;;;;57.73;2.70;;;;;;;;;;5112624;28;20529;-71
2022/10/22 00:36:19;;;;;;;57.77;2.50;;;;;;;;;;5112379;28;20488;-71
2022/10/22 00:38:46;;;;;;;58.40;3.23;;;;;;;;;;5112121;28;20455;-71
2022/10/22 00:41:13;;;;;;;57.77;2.60;;;;;;;;;;5111882;28;20784;-71
2022/10/22 00:44:01;;;;;;;57.87;2.60;;;;;;;;;;5112333;28;20453;-72
2022/10/22 00:46:28;;;;;;;57.57;2.40;;;;;;;;;;5112400;28;20465;-71
2022/10/22 00:48:56;;;;;;;57.67;2.47;;;;;;;;;;5112105;27;20454;-71
2022/10/22 00:51:25;;;;;;;57.93;2.63;;;;;;;;;;5112193;28;20804;-71
2022/10/22 00:53:55;;;;;;;58.40;3.27;;;;;;;;;;5112260;28;20459;-71
2022/10/22 00:56:23;;;;;;;57.90;2.70;;;;;;;;;;5111872;28;20489;-71
2022/10/22 00:58:52;;;;;;;57.77;2.60;;;;;;;;;;5111968;28;20453;-71
2022/10/22 01:01:23;;;;;;;58.00;2.80;;;;;;;;;;5112278;28;20455;-71
2022/10/22 01:03:51;;;;;;;58.00;2.40;;;;;;;;;;5112185;28;20548;-71
2022/10/22 01:06:20;;;;;;;57.83;2.33;;;;;;;;;;5111999;28;20537;-71
2022/10/22 01:08:53;;;;;;;57.87;2.77;;;;;;;;;;5111583;28;20453;-72
2022/10/22 01:11:22;;;;;;;57.90;2.90;;;;;;;;;;5112342;28;20452;-71
2022/10/22 01:13:54;;;;;;;57.77;2.50;;;;;;;;;;5112243;28;20469;-72
2022/10/22 01:16:28;;;;;;;57.67;2.60;;;;;;;;;;5111845;28;20487;-72
2022/10/22 01:19:00;;;;;;;58.07;2.83;;;;;;;;;;5111772;28;20452;-71
2022/10/22 01:21:32;;;;;;;57.63;2.30;;;;;;;;;;5111966;28;20456;-71
2022/10/22 01:24:25;;;;;;;59.80;2.70;;;;;;;;;;5112113;28;20445;-71
2022/10/22 01:27:08;;;;;;;57.97;2.60;;;;;;;;;;5112007;28;20829;-71
2022/10/22 01:29:38;;;;;;;58.20;3.00;;;;;;;;;;5112106;28;20456;-71
2022/10/22 01:32:07;;;;;;;58.10;2.60;;;;;;;;;;5111751;28;20448;-71
2022/10/22 01:34:35;;;;;;;57.77;2.60;;;;;;;;;;5111807;28;20464;-72
2022/10/22 01:37:03;;;;;;;57.80;2.50;;;;;;;;;;5111613;28;20516;-71
2022/10/22 01:39:31;;;;;;;57.87;2.70;;;;;;;;;;5110297;28;20446;-71
2022/10/22 01:41:58;;;;;;;58.00;2.60;;;;;;;;;;5111739;28;20955;-72
2022/10/22 01:44:27;;;;;;;57.80;2.30;;;;;;;;;;5111849;28;20455;-71
2022/10/22 01:46:59;;;;;;;57.63;2.50;;;;;;;;;;5111490;28;20468;-71
2022/10/22 01:49:28;;;;;;;57.57;2.47;;;;;;;;;;5111149;28;20479;-71
2022/10/22 01:51:59;;;;;;;57.57;2.40;;;;;;;;;;5111603;28;20554;-70
2022/10/22 01:54:32;;;;;;;57.60;2.37;;;;;;;;;;5115544;28;20944;-72
2022/10/22 01:57:07;;;;;;;57.67;2.23;;;;;;;;;;5115316;28;21007;-71
2022/10/22 01:59:39;;;;;;;57.70;2.40;;;;;;;;;;5115049;28;20959;-71
2022/10/22 02:02:11;;;;;;;57.80;2.30;;;;;;;;;;5115364;28;20466;-72
2022/10/22 02:04:43;;;;;;;57.70;2.50;;;;;;;;;;5115454;28;20945;-71
2022/10/22 02:07:12;;;;;;;58.20;2.70;;;;;;;;;;5115337;28;20472;-71
2022/10/22 02:09:41;;;;;;;57.47;2.30;;;;;;;;;;5114849;28;20531;-71
2022/10/22 02:12:09;;;;;;;57.87;2.50;;;;;;;;;;5115651;28;20455;-71
2022/10/22 02:14:38;;;;;;;58.30;2.67;;;;;;;;;;5114980;28;20448;-71
2022/10/22 02:17:06;;;;;;;58.17;2.70;;;;;;;;;;5115156;28;20497;-71
2022/10/22 02:19:38;;;;;;;57.87;2.60;;;;;;;;;;5114829;28;20459;-70
2022/10/22 02:22:05;;;;;;;57.57;2.40;;;;;;;;;;5115117;28;20453;-70
2022/10/22 02:24:32;;;;;;;57.80;2.70;;;;;;;;;;5115179;28;20547;-70
2022/10/22 02:27:03;;;;;;;57.57;2.53;;;;;;;;;;5114862;28;20472;-71
2022/10/22 02:29:34;;;;;;;58.90;3.03;;;;;;;;;;5114537;28;20866;-70
2022/10/22 02:32:01;;;;;;;58.30;2.63;;;;;;;;;;5115107;28;20476;-71
2022/10/22 02:34:31;;;;;;;57.63;2.37;;;;;;;;;;5114783;28;20837;-70
2022/10/22 02:37:00;;;;;;;58.10;2.87;;;;;;;;;;5114575;28;20488;-72
2022/10/22 02:39:28;;;;;;;57.47;2.50;;;;;;;;;;5114527;27;20441;-71
2022/10/22 02:41:56;;;;;;;57.47;2.50;;;;;;;;;;5114539;28;20978;-71
2022/10/22 02:44:24;;;;;;;57.77;2.50;;;;;;;;;;5114752;28;20480;-70
2022/10/22 02:46:51;;;;;;;57.67;2.60;;;;;;;;;;5114560;28;20475;-70
2022/10/22 02:49:18;;;;;;;57.70;2.50;;;;;;;;;;5114201;27;20457;-71
2022/10/22 02:51:45;;;;;;;57.27;2.50;;;;;;;;;;5114564;28;20822;-71
2022/10/22 02:54:14;;;;;;;57.80;2.60;;;;;;;;;;5114343;28;20451;-71
2022/10/22 02:56:41;;;;;;;57.67;2.43;;;;;;;;;;5114156;28;21011;-70
2022/10/22 02:59:08;;;;;;;57.43;2.50;;;;;;;;;;5114125;28;20456;-71
2022/10/22 03:01:35;;;;;;;58.10;2.60;;;;;;;;;;5114193;27;20452;-71
2022/10/22 03:04:02;;;;;;;57.37;2.43;;;;;;;;;;5113620;28;20453;-70
2022/10/22 03:06:29;;;;;;;57.73;2.80;;;;;;;;;;5114126;28;20468;-71
2022/10/22 03:08:56;;;;;;;60.37;2.70;;;;;;;;;;5113813;28;20907;-72
2022/10/22 03:11:25;;;;;;;57.80;2.30;;;;;;;;;;5114336;28;20444;-71
2022/10/22 03:13:52;;;;;;;57.90;2.90;;;;;;;;;;5114221;28;20455;-71
2022/10/22 03:16:19;;;;;;;57.57;2.40;;;;;;;;;;5113915;27;20476;-70
2022/10/22 03:18:46;;;;;;;57.57;2.37;;;;;;;;;;5113398;28;20484;-71
2022/10/22 03:21:18;;;;;;;57.70;2.50;;;;;;;;;;5113966;28;20818;-71
2022/10/22 03:23:45;;;;;;;57.50;2.33;;;;;;;;;;5114045;28;20965;-71
2022/10/22 03:26:13;;;;;;;57.97;2.63;;;;;;;;;;5113874;28;20465;-71
2022/10/22 03:28:42;;;;;;;57.73;2.50;;;;;;;;;;5113650;28;20609;-70
2022/10/22 03:31:10;;;;;;;57.77;2.40;;;;;;;;;;5113813;28;20523;-71
2022/10/22 03:33:37;;;;;;;57.57;2.50;;;;;;;;;;5113480;27;20452;-71
2022/10/22 03:36:04;;;;;;;58.50;2.90;;;;;;;;;;5113406;28;21002;-70
2022/10/22 03:38:31;;;;;;;57.87;2.60;;;;;;;;;;5113247;28;20512;-72
2022/10/22 03:40:58;;;;;;;57.63;2.70;;;;;;;;;;5113339;28;20945;-71
2022/10/22 03:43:26;;;;;;;57.57;2.33;;;;;;;;;;5113393;28;20801;-71
2022/10/22 03:45:54;;;;;;;58.07;2.50;;;;;;;;;;5113223;28;20476;-70
2022/10/22 03:48:21;;;;;;;57.57;2.57;;;;;;;;;;5113286;28;20446;-70
2022/10/22 03:50:48;;;;;;;57.57;2.60;;;;;;;;;;5113079;28;20444;-71
2022/10/22 03:53:15;;;;;;;57.70;2.60;;;;;;;;;;5113172;28;20440;-71
2022/10/22 03:55:42;;;;;;;57.63;2.60;;;;;;;;;;5113236;28;20446;-71
2022/10/22 03:58:10;;;;;;;57.63;2.57;;;;;;;;;;5112682;28;20485;-72
2022/10/22 04:00:37;;;;;;;57.57;2.33;;;;;;;;;;5112717;28;20963;-70
2022/10/22 04:03:05;;;;;;;57.77;2.57;;;;;;;;;;5112897;28;20454;-71
2022/10/22 04:05:33;;;;;;;57.57;2.60;;;;;;;;;;5112879;28;20460;-71
2022/10/22 04:08:00;;;;;;;57.67;2.60;;;;;;;;;;5113027;27;20445;-71
2022/10/22 04:10:27;;;;;;;57.90;2.40;;;;;;;;;;5112786;28;20474;-71
2022/10/22 04:12:54;;;;;;;57.87;2.57;;;;;;;;;;5112801;28;20445;-71
2022/10/22 04:15:21;;;;;;;57.70;2.50;;;;;;;;;;5112522;28;20459;-70
2022/10/22 04:17:48;;;;;;;58.10;2.70;;;;;;;;;;5111991;28;20487;-71
2022/10/22 04:20:17;;;;;;;57.87;2.50;;;;;;;;;;5112568;28;20444;-70
2022/10/22 04:22:44;;;;;;;57.97;3.20;;;;;;;;;;5113030;28;20453;-71
2022/10/22 04:25:11;;;;;;;57.53;2.40;;;;;;;;;;5112569;28;20448;-71
2022/10/22 04:27:38;;;;;;;57.63;2.60;;;;;;;;;;5112528;28;20461;-71
2022/10/22 04:30:06;;;;;;;57.47;2.33;;;;;;;;;;5112111;28;20455;-70
2022/10/22 04:32:33;;;;;;;58.03;2.87;;;;;;;;;;5112664;28;20967;-71
2022/10/22 04:35:00;;;;;;;58.93;2.97;;;;;;;;;;5112523;28;20465;-71
2022/10/22 04:37:29;;;;;;;57.70;2.50;;;;;;;;;;5112109;28;20488;-71
2022/10/22 04:39:56;;;;;;;57.57;2.33;;;;;;;;;;5111984;28;20448;-71
2022/10/22 04:42:23;;;;;;;57.63;2.40;;;;;;;;;;5112394;28;20482;-71
2022/10/22 04:44:50;;;;;;;57.77;2.67;;;;;;;;;;5112276;28;20456;-71
2022/10/22 04:47:17;;;;;;;57.63;2.60;;;;;;;;;;5112117;28;20485;-71
2022/10/22 04:49:44;;;;;;;57.67;2.50;;;;;;;;;;5112050;28;20440;-71
2022/10/22 04:52:12;;;;;;;57.47;2.30;;;;;;;;;;5112353;28;20449;-71
2022/10/22 04:54:40;;;;;;;57.83;2.50;;;;;;;;;;5112446;28;20444;-72
2022/10/22 04:57:07;;;;;;;57.80;2.70;;;;;;;;;;5111916;28;20848;-71
2022/10/22 04:59:35;;;;;;;57.80;2.80;;;;;;;;;;5111699;28;20441;-71
2022/10/22 05:02:02;;;;;;;57.83;2.90;;;;;;;;;;5112364;28;20453;-71
2022/10/22 05:04:29;;;;;;;57.80;2.43;;;;;;;;;;5112107;28;20457;-72
2022/10/22 05:06:56;;;;;;;59.37;2.53;;;;;;;;;;5111917;28;20474;-72
2022/10/22 05:09:23;;;;;;;57.77;2.90;;;;;;;;;;5111827;28;20447;-72
2022/10/22 05:11:52;;;;;;;57.70;2.40;;;;;;;;;;5111999;28;20456;-72
2022/10/22 05:14:21;;;;;;;57.77;2.40;;;;;;;;;;5112324;28;20437;-71
2022/10/22 05:16:48;;;;;;;57.77;2.50;;;;;;;;;;5112166;28;20464;-72
2022/10/22 05:19:16;;;;;;;57.77;2.40;;;;;;;;;;5111519;28;20480;-71
2022/10/22 05:21:44;;;;;;;57.60;2.40;;;;;;;;;;5112067;28;20444;-71
2022/10/22 05:24:11;;;;;;;57.93;2.70;;;;;;;;;;5111895;28;20445;-71
2022/10/22 05:26:38;;;;;;;58.10;2.60;;;;;;;;;;5111703;28;20495;-71
2022/10/22 05:29:06;;;;;;;57.87;2.60;;;;;;;;;;5115270;28;20449;-72
2022/10/22 05:31:34;;;;;;;58.00;2.80;;;;;;;;;;5116079;28;20456;-72
2022/10/22 05:34:01;;;;;;;57.97;2.73;;;;;;;;;;5115814;28;20459;-71
2022/10/22 05:36:28;;;;;;;57.77;2.60;;;;;;;;;;5115860;28;20472;-71
2022/10/22 05:38:55;;;;;;;59.33;3.40;;;;;;;;;;5115371;28;20484;-72
2022/10/22 05:41:22;;;;;;;58.47;3.60;;;;;;;;;;5116199;28;20449;-71
2022/10/22 05:43:50;;;;;;;57.97;2.50;;;;;;;;;;5115860;28;20463;-71
2022/10/22 05:46:19;;;;;;;57.73;2.70;;;;;;;;;;5115702;28;21014;-72
2022/10/22 05:48:49;;;;;;;57.67;2.83;;;;;;;;;;5115441;28;20544;-71
2022/10/22 05:51:16;;;;;;;58.50;3.07;;;;;;;;;;5115487;27;20960;-71
2022/10/22 05:53:43;;;;;;;58.07;2.70;;;;;;;;;;5115518;27;20455;-72
2022/10/22 05:56:12;;;;;;;57.67;2.70;;;;;;;;;;5115459;28;20988;-71
2022/10/22 05:58:39;;;;;;;58.10;2.97;;;;;;;;;;5115011;28;20483;-72
2022/10/22 06:01:07;;;;;;;57.67;2.60;;;;;;;;;;5115584;28;20448;-71
2022/10/22 06:03:35;;;;;;;57.77;2.50;;;;;;;;;;5115407;28;20460;-71
2022/10/22 06:06:05;;;;;;;57.87;3.10;;;;;;;;;;5115190;28;20477;-71
2022/10/22 06:08:32;;;;;;;58.10;2.80;;;;;;;;;;5114905;28;20801;-72
2022/10/22 06:11:00;;;;;;;57.77;2.60;;;;;;;;;;5115320;28;20451;-72
2022/10/22 06:13:27;;;;;;;57.77;2.60;;;;;;;;;;5115308;28;20447;-71
2022/10/22 06:15:54;;;;;;;58.13;3.17;;;;;;;;;;5115127;28;20474;-71
2022/10/22 06:18:21;;;;;;;58.00;2.80;;;;;;;;;;5114779;28;20894;-71
2022/10/22 06:20:50;;;;;;;58.30;3.03;;;;;;;;;;5114692;28;20455;-71
2022/10/22 06:23:17;;;;;;;57.67;2.70;;;;;;;;;;5114943;28;20457;-71
2022/10/22 06:25:44;;;;;;;58.10;2.80;;;;;;;;;;5114930;28;20452;-71
2022/10/22 06:28:11;;;;;;;58.17;2.80;;;;;;;;;;5114680;28;20509;-70
2022/10/22 06:30:38;;;;;;;58.00;2.90;;;;;;;;;;5114668;28;20455;-70
2022/10/22 06:33:05;;;;;;;59.13;2.60;;;;;;;;;;5114638;28;20454;-70
2022/10/22 06:35:33;;;;;;;58.40;3.10;;;;;;;;;;5114838;28;20460;-71
2022/10/22 06:38:01;;;;;;;58.10;3.47;;;;;;;;;;5113415;28;21003;-71
2022/10/22 06:40:28;;;;;;;57.80;2.60;;;;;;;;;;5113444;28;20477;-71
2022/10/22 06:42:56;;;;;;;58.47;3.30;;;;;;;;;;5114653;28;20461;-71
2022/10/22 06:45:23;;;;;;;58.87;4.10;;;;;;;;;;5114532;28;20460;-71
2022/10/22 06:47:50;;;;;;;58.10;3.00;;;;;;;;;;5114372;28;20976;-71
2022/10/22 06:50:17;;;;;;;57.97;2.77;;;;;;;;;;5114613;28;20444;-70
2022/10/22 06:52:44;;;;;;;57.80;2.80;;;;;;;;;;5113339;28;20961;-71
2022/10/22 06:55:13;;;;;;;57.87;2.63;;;;;;;;;;5114248;28;20462;-70
2022/10/22 06:57:40;;;;;;;58.10;2.67;;;;;;;;;;5114291;28;20835;-70
2022/10/22 07:00:08;;;;;;;57.37;2.37;;;;;;;;;;5113916;28;20445;-71
2022/10/22 07:02:35;;;;;;;57.77;2.60;;;;;;;;;;5114495;28;20449;-70
2022/10/22 07:05:02;;;;;;;57.97;2.73;;;;;;;;;;5114331;28;20441;-71
2022/10/22 07:07:29;;;;;;;57.73;2.47;;;;;;;;;;5114224;28;20469;-71
2022/10/22 07:09:56;;;;;;;57.67;2.50;;;;;;;;;;5113886;28;20467;-70
2022/10/22 07:12:25;;;;;;;57.93;2.83;;;;;;;;;;5114009;28;20452;-71
2022/10/22 07:14:52;;;;;;;58.37;2.73;;;;;;;;;;5113969;28;20541;-71
2022/10/22 07:17:19;;;;;;;57.77;2.57;;;;;;;;;;5114029;27;20801;-71
2022/10/22 07:19:46;;;;;;;58.10;2.80;;;;;;;;;;5113881;28;20481;-71
2022/10/22 07:22:13;;;;;;;57.90;2.60;;;;;;;;;;5113652;28;20460;-70
2022/10/22 07:24:40;;;;;;;58.80;3.03;;;;;;;;;;5113725;28;20450;-71
2022/10/22 07:27:07;;;;;;;57.47;2.70;;;;;;;;;;5113547;28;20498;-70
2022/10/22 07:29:35;;;;;;;57.37;2.40;;;;;;;;;;5113710;28;20449;-70
2022/10/22 07:32:03;;;;;;;57.50;2.90;;;;;;;;;;5113810;28;20468;-70
2022/10/22 07:34:30;;;;;;;57.67;2.47;;;;;;;;;;5113792;28;20457;-71
2022/10/22 07:36:57;;;;;;;58.20;3.00;;;;;;;;;;5113656;28;20461;-71
2022/10/22 07:39:24;;;;;;;58.63;2.90;;;;;;;;;;5113218;28;20482;-71
2022/10/22 07:41:52;;;;;;;57.57;2.60;;;;;;;;;;5113357;28;20445;-72
2022/10/22 07:44:19;;;;;;;58.30;2.73;;;;;;;;;;5113628;28;20488;-71
2022/10/22 07:46:47;;;;;;;57.53;2.60;;;;;;;;;;5113500;28;20458;-72
2022/10/22 07:49:14;;;;;;;57.80;2.80;;;;;;;;;;5113089;28;20442;-71
2022/10/22 07:51:41;;;;;;;57.80;2.80;;;;;;;;;;5113203;28;20449;-71
2022/10/22 07:54:08;;;;;;;58.17;2.67;;;;;;;;;;5113268;28;20833;-71
2022/10/22 07:56:36;;;;;;;57.77;2.67;;;;;;;;;;5113109;28;20472;-71
2022/10/22 07:59:03;;;;;;;57.87;2.60;;;;;;;;;;5112898;28;21040;-71
2022/10/22 08:01:30;;;;;;;57.57;2.60;;;;;;;;;;5113271;28;20813;-72
2022/10/22 08:03:59;;;;;;;57.33;2.37;;;;;;;;;;5113174;28;20454;-71
2022/10/22 08:06:26;;;;;;;57.77;2.43;;;;;;;;;;5113093;28;20470;-71
2022/10/22 08:08:53;;;;;;;57.67;2.70;;;;;;;;;;5112532;28;20442;-71
2022/10/22 08:11:20;;;;;;;57.70;2.80;;;;;;;;;;5112693;28;20449;-71
2022/10/22 08:13:47;;;;;;;57.83;2.47;;;;;;;;;;5112887;28;20445;-71
2022/10/22 08:16:14;;;;;;;57.47;2.70;;;;;;;;;;5112896;28;20476;-71
2022/10/22 08:18:42;;;;;;;57.57;2.63;;;;;;;;;;5112305;28;20481;-71
2022/10/22 08:21:10;;;;;;;57.33;2.57;;;;;;;;;;5112659;28;20438;-71
2022/10/22 08:23:37;;;;;;;57.73;2.67;;;;;;;;;;5112702;28;20445;-71
2022/10/22 08:26:05;;;;;;;57.57;2.80;;;;;;;;;;5112440;28;20466;-71
2022/10/22 08:28:35;;;;;;;57.67;2.63;;;;;;;;;;5112468;28;20445;-71
2022/10/22 08:31:02;;;;;;;57.37;2.40;;;;;;;;;;5112632;28;20867;-71
2022/10/22 08:33:30;;;;;;;57.17;2.60;;;;;;;;;;5112417;28;20964;-71
2022/10/22 08:35:57;;;;;;;58.00;2.60;;;;;;;;;;5112278;28;20483;-71
2022/10/22 08:38:25;;;;;;;57.37;2.43;;;;;;;;;;5112441;28;20869;-71
2022/10/22 08:40:54;;;;;;;57.60;2.50;;;;;;;;;;5112467;28;20496;-71
2022/10/22 08:43:36;;;;;;;57.47;2.53;;;;;;;;;;5112521;28;20449;-72
2022/10/22 08:46:13;;;;;;;58.17;2.57;;;;;;;;;;5112480;28;20477;-72
2022/10/22 08:48:45;;;;;;;57.87;2.67;;;;;;;;;;5112183;28;20472;-72
2022/10/22 08:51:13;;;;;;;58.20;3.03;;;;;;;;;;5112489;28;20445;-71
2022/10/22 08:53:43;;;;;;;57.37;2.47;;;;;;;;;;5112256;28;20448;-71
2022/10/22 08:56:10;;;;;;;57.80;2.60;;;;;;;;;;5112297;28;20472;-72
2022/10/22 08:58:40;;;;;;;57.57;2.30;;;;;;;;;;5111749;28;20814;-71
2022/10/22 09:01:11;;;;;;;57.80;2.90;;;;;;;;;;5112350;28;20954;-70
2022/10/22 09:03:43;;;;;;;57.53;2.30;;;;;;;;;;5111528;28;20445;-72
2022/10/22 09:06:12;;;;;;;57.50;2.43;;;;;;;;;;5112251;28;20465;-71
2022/10/22 09:08:40;;;;;;;57.80;3.00;;;;;;;;;;5111629;28;20450;-71
2022/10/22 09:11:14;;;;;;;58.50;2.97;;;;;;;;;;5112239;28;20442;-71
2022/10/22 09:13:42;;;;;;;57.97;2.77;;;;;;;;;;5112077;28;20989;-71
2022/10/22 09:16:14;;;;;;;57.47;2.53;;;;;;;;;;5112173;28;20469;-70
2022/10/22 09:18:43;;;;;;;58.50;2.80;;;;;;;;;;5111742;28;20448;-71
2022/10/22 09:21:17;;;;;;;57.90;2.43;;;;;;;;;;5112156;28;20445;-71
2022/10/22 09:23:52;;;;;;;57.67;2.33;;;;;;;;;;5112062;28;20449;-71
2022/10/22 09:26:21;;;;;;;57.50;2.50;;;;;;;;;;5112146;28;20464;-71
2022/10/22 09:28:50;;;;;;;57.33;2.20;;;;;;;;;;5111794;28;20450;-71
2022/10/22 09:31:17;;;;;;;58.60;2.50;;;;;;;;;;5111948;28;20504;-72
2022/10/22 09:33:47;;;;;;;57.70;2.30;;;;;;;;;;5111874;28;20444;-73
2022/10/22 09:36:16;;;;;;;57.77;2.30;;;;;;;;;;5111813;28;20561;-71
2022/10/22 09:38:46;;;;;;;57.47;2.17;;;;;;;;;;5111288;28;20449;-72
2022/10/22 09:41:14;;;;;;;57.60;2.00;;;;;;;;;;5112287;28;20449;-72
2022/10/22 09:43:42;;;;;;;57.63;2.20;;;;;;;;;;5112222;28;20445;-72
2022/10/22 09:46:16;;;;;;;58.00;2.00;;;;;;;;;;5111836;28;20465;-72
2022/10/22 09:48:43;;;;;;;61.50;2.00;;;;;;;;;;5111560;28;20523;-69
2022/10/22 09:51:13;;;;;;;57.40;1.90;;;;;;;;;;5111878;28;20527;-69
2022/10/22 09:53:43;;;;;;;57.30;1.90;;;;;;;;;;5111876;28;20457;-72
2022/10/22 09:56:11;;;;;;;56.93;1.83;;;;;;;;;;5112028;28;20888;-72
2022/10/22 09:58:48;;;;;;;56.97;1.80;;;;;;;;;;5110636;28;20821;-71
2022/10/22 10:01:18;;;;;;;57.20;1.70;;;;;;;;;;5111508;28;20541;-71
2022/10/22 10:03:45;;;;;;;57.07;1.70;;;;;;;;;;5111870;28;20494;-70
2022/10/22 10:06:12;;;;;;;57.27;1.70;;;;;;;;;;5111495;28;20981;-71
2022/10/22 10:08:39;;;;;;;57.30;1.90;;;;;;;;;;5111383;28;20441;-71
2022/10/22 10:11:09;;;;;;;57.10;1.70;;;;;;;;;;5111816;28;20446;-71
2022/10/22 10:13:42;;;;;;;57.30;1.77;;;;;;;;;;5111286;28;20449;-71
2022/10/22 10:16:14;;;;;;;58.37;2.77;;;;;;;;;;5114711;28;20933;-70
2022/10/22 10:18:48;;;;;;;57.00;1.70;;;;;;;;;;5114830;27;20445;-71
2022/10/22 10:21:19;;;;;;;57.10;1.80;;;;;;;;;;5114913;28;20480;-68
2022/10/22 10:23:53;;;;;;;57.00;1.80;;;;;;;;;;5114963;28;20445;-69
2022/10/22 10:26:22;;;;;;;57.07;1.80;;;;;;;;;;5114687;28;20477;-69
2022/10/22 10:28:55;;;;;;;56.93;1.70;;;;;;;;;;5114792;28;20450;-70
2022/10/22 10:31:27;;;;;;;56.77;2.10;;;;;;;;;;5115058;28;20454;-71
2022/10/22 10:33:59;;;;;;;56.70;1.63;;;;;;;;;;5115012;28;20449;-71
2022/10/22 10:36:32;;;;;;;56.40;1.50;;;;;;;;;;5114602;28;20981;-71
2022/10/22 10:39:02;;;;;;;56.67;1.70;;;;;;;;;;5114200;28;20817;-69
2022/10/22 10:41:34;;;;;;;56.47;1.70;;;;;;;;;;5114542;28;20450;-71
2022/10/22 10:44:16;;;;;;;56.23;1.67;;;;;;;;;;5114709;28;20441;-70
2022/10/22 10:46:49;;;;;;;56.57;1.80;;;;;;;;;;5114489;28;20484;-70
2022/10/22 10:49:19;;;;;;;56.37;1.67;;;;;;;;;;5114299;28;20449;-70
2022/10/22 10:51:49;;;;;;;56.27;1.50;;;;;;;;;;5114362;28;20452;-71
2022/10/22 10:54:25;;;;;;;56.73;1.70;;;;;;;;;;5114614;28;20438;-71
2022/10/22 10:56:55;;;;;;;57.17;1.83;;;;;;;;;;5114563;28;20476;-70
2022/10/22 10:59:30;;;;;;;56.97;1.80;;;;;;;;;;5114041;28;20477;-70
2022/10/22 11:02:09;;;;;;;57.37;1.93;;;;;;;;;;5114134;28;20456;-70
2022/10/22 11:04:52;;;;;;;57.50;1.83;;;;;;;;;;5114564;28;20455;-71
2022/10/22 11:07:23;;;;;;;57.37;2.17;;;;;;;;;;5113962;28;20469;-71
2022/10/22 11:09:53;;;;;;;57.60;1.90;;;;;;;;;;5113925;28;20442;-71
2022/10/22 11:12:22;;;;;;;57.70;2.07;;;;;;;;;;5113891;28;20460;-70
2022/10/22 11:14:55;;;;;;;57.27;1.90;;;;;;;;;;5114324;28;20784;-71
2022/10/22 11:17:25;;;;;;;57.20;1.90;;;;;;;;;;5114065;28;20473;-71
2022/10/22 11:19:56;;;;;;;57.17;1.70;;;;;;;;;;5113628;28;20484;-71
2022/10/22 11:22:26;;;;;;;57.27;2.30;;;;;;;;;;5113832;28;20456;-70
2022/10/22 11:24:56;;;;;;;56.67;1.70;;;;;;;;;;5113205;28;20449;-70
2022/10/22 11:27:25;;;;;;;56.17;1.50;;;;;;;;;;5113598;28;20996;-70
2022/10/22 11:29:54;;;;;;;56.43;1.80;;;;;;;;;;5113598;27;20438;-70
2022/10/22 11:32:22;;;;;;;56.17;1.87;;;;;;;;;;5113779;28;20538;-70
2022/10/22 11:34:53;;;;;;;56.27;1.57;;;;;;;;;;5113369;28;20465;-70
2022/10/22 11:37:21;;;;;;;58.93;1.63;;;;;;;;;;5113659;28;20470;-70
2022/10/22 11:39:50;;;;;;;56.40;1.70;;;;;;;;;;5113201;28;20481;-70
2022/10/22 11:42:19;;;;;;;56.40;1.70;;;;;;;;;;5113379;28;20978;-70
2022/10/22 11:44:47;;;;;;;56.03;1.70;;;;;;;;;;5113476;28;20491;-69
2022/10/22 11:47:19;;;;;;;55.83;1.70;;;;;;;;;;5113166;28;20469;-69
2022/10/22 11:49:55;;;;;;;56.07;1.90;;;;;;;;;;5112761;28;20445;-70
2022/10/22 11:52:25;;;;;;;55.87;1.80;;;;;;;;;;5113476;28;20454;-70
2022/10/22 11:54:54;;;;;;;55.73;1.60;;;;;;;;;;5113122;28;20957;-70
2022/10/22 11:57:26;;;;;;;56.40;1.80;;;;;;;;;;5113029;28;20849;-70
2022/10/22 11:59:54;;;;;;;55.93;1.70;;;;;;;;;;5112602;28;20477;-69
2022/10/22 12:02:30;;;;;;;56.30;2.00;;;;;;;;;;5112877;28;20472;-70
2022/10/22 12:05:12;;;;;;;55.90;1.70;;;;;;;;;;5113091;28;20449;-69
2022/10/22 12:07:52;;;;;;;56.13;1.80;;;;;;;;;;5112720;28;20985;-70
2022/10/22 12:10:20;;;;;;;56.47;1.70;;;;;;;;;;5112596;28;20813;-68
2022/10/22 12:12:53;;;;;;;56.20;1.63;;;;;;;;;;5112671;28;20446;-67
2022/10/22 12:15:24;;;;;;;55.97;1.60;;;;;;;;;;5112760;28;20437;-66
2022/10/22 12:17:51;;;;;;;56.60;2.43;;;;;;;;;;5112919;28;20526;-67
2022/10/22 12:20:18;;;;;;;57.03;2.10;;;;;;;;;;5112292;28;20481;-67
2022/10/22 12:22:45;;;;;;;61.37;2.17;;;;;;;;;;5112852;28;20449;-67
2022/10/22 12:25:21;;;;;;;61.87;2.00;;;;;;;;;;5112378;28;20445;-66
2022/10/22 12:27:52;;;;;;;57.20;2.00;;;;;;;;;;5112490;28;20461;-67
2022/10/22 12:30:21;;;;;;;56.77;1.67;;;;;;;;;;5112327;28;20446;-67
2022/10/22 12:32:48;;;;;;;56.90;1.90;;;;;;;;;;5112374;28;20452;-69
2022/10/22 12:35:17;;;;;;;57.23;2.07;;;;;;;;;;5112519;28;20462;-68
2022/10/22 12:37:44;;;;;;;57.30;2.00;;;;;;;;;;5111760;28;20479;-70
2022/10/22 12:40:18;;;;;;;57.27;1.80;;;;;;;;;;5112325;28;20488;-66
2022/10/22 12:42:49;;;;;;;57.50;2.10;;;;;;;;;;5112795;28;20453;-71
2022/10/22 12:45:16;;;;;;;57.07;1.80;;;;;;;;;;5112794;28;20450;-71
2022/10/22 12:47:46;;;;;;;57.90;2.00;;;;;;;;;;5112500;28;20476;-71
2022/10/22 12:50:18;;;;;;;57.57;2.00;;;;;;;;;;5112517;28;20434;-70
2022/10/22 12:52:45;;;;;;;60.47;2.50;;;;;;;;;;5112721;28;20455;-71
2022/10/22 12:55:16;;;;;;;57.77;2.07;;;;;;;;;;5112603;28;20452;-69
2022/10/22 12:57:46;;;;;;;57.60;1.90;;;;;;;;;;5112122;28;20469;-69
2022/10/22 13:00:21;;;;;;;58.27;2.40;;;;;;;;;;5111860;28;20993;-69
2022/10/22 13:02:48;;;;;;;58.77;2.40;;;;;;;;;;5112250;28;20449;-68
2022/10/22 13:05:22;;;;;;;57.50;1.70;;;;;;;;;;5112599;28;20445;-72
2022/10/22 13:07:50;;;;;;;58.20;2.00;;;;;;;;;;5112441;28;20465;-71
2022/10/22 13:10:19;;;;;;;57.40;1.87;;;;;;;;;;5112041;28;20784;-69
2022/10/22 13:12:51;;;;;;;58.80;2.60;;;;;;;;;;5112421;28;20825;-69
2022/10/22 13:15:19;;;;;;;57.13;2.03;;;;;;;;;;5112338;28;20469;-69
2022/10/22 13:17:48;;;;;;;58.20;1.80;;;;;;;;;;5112169;28;20542;-69
2022/10/22 13:20:17;;;;;;;56.97;2.00;;;;;;;;;;5112026;28;20477;-70
2022/10/22 13:22:54;;;;;;;57.40;2.00;;;;;;;;;;5112144;28;20445;-70
2022/10/22 13:25:23;;;;;;;56.37;1.80;;;;;;;;;;5112163;28;20445;-71
2022/10/22 13:27:54;;;;;;;56.90;1.90;;;;;;;;;;5112017;28;20497;-71
2022/10/22 13:30:22;;;;;;;56.63;1.60;;;;;;;;;;5111848;28;20798;-71
2022/10/22 13:32:51;;;;;;;56.47;1.60;;;;;;;;;;5112037;28;20957;-70
2022/10/22 13:35:19;;;;;;;56.53;1.57;;;;;;;;;;5111995;28;20453;-69
2022/10/22 13:37:46;;;;;;;57.60;1.77;;;;;;;;;;5111824;28;20476;-69
2022/10/22 13:40:14;;;;;;;56.40;1.67;;;;;;;;;;5111409;28;21029;-69
2022/10/22 13:42:41;;;;;;;56.53;1.50;;;;;;;;;;5112315;28;20468;-67
2022/10/22 13:45:10;;;;;;;56.60;1.60;;;;;;;;;;5111770;28;20448;-68
2022/10/22 13:47:37;;;;;;;56.60;1.73;;;;;;;;;;5112050;28;20461;-68
2022/10/22 13:50:05;;;;;;;56.67;1.70;;;;;;;;;;5115002;28;20820;-68
2022/10/22 13:52:35;;;;;;;57.20;1.70;;;;;;;;;;5115794;27;20441;-68
2022/10/22 13:55:02;;;;;;;56.93;2.00;;;;;;;;;;5116052;28;20441;-68
2022/10/22 13:57:29;;;;;;;56.87;1.60;;;;;;;;;;5115966;28;20538;-68
2022/10/22 13:59:56;;;;;;;56.80;1.60;;;;;;;;;;5115191;28;20476;-68
2022/10/22 14:02:25;;;;;;;56.90;1.60;;;;;;;;;;5115726;28;20445;-68
2022/10/22 14:04:52;;;;;;;56.90;1.60;;;;;;;;;;5115466;28;20926;-68
2022/10/22 14:07:19;;;;;;;57.27;1.90;;;;;;;;;;5115229;27;20465;-69
2022/10/22 14:09:46;;;;;;;57.10;1.80;;;;;;;;;;5115159;28;20987;-69
2022/10/22 14:12:15;;;;;;;57.33;1.80;;;;;;;;;;5115330;28;20444;-69
2022/10/22 14:14:42;;;;;;;56.97;1.90;;;;;;;;;;5115369;28;20453;-70
2022/10/22 14:17:14;;;;;;;56.90;1.80;;;;;;;;;;5115412;28;20850;-69
2022/10/22 14:19:43;;;;;;;58.13;2.00;;;;;;;;;;5114792;28;20449;-70
2022/10/22 14:22:13;;;;;;;57.70;1.87;;;;;;;;;;5115276;28;20487;-70
2022/10/22 14:24:41;;;;;;;56.90;1.70;;;;;;;;;;5115238;28;20561;-69
2022/10/22 14:27:09;;;;;;;58.37;2.20;;;;;;;;;;5115347;28;20469;-70
2022/10/22 14:29:36;;;;;;;56.87;1.67;;;;;;;;;;5114801;28;20442;-70
2022/10/22 14:32:03;;;;;;;56.93;1.70;;;;;;;;;;5115033;28;20442;-70
2022/10/22 14:34:30;;;;;;;57.70;1.90;;;;;;;;;;5115160;27;20499;-71
2022/10/22 14:36:58;;;;;;;57.33;2.03;;;;;;;;;;5114996;28;20465;-71
2022/10/22 14:39:25;;;;;;;57.23;1.97;;;;;;;;;;5114394;27;20963;-71
2022/10/22 14:41:53;;;;;;;57.17;1.80;;;;;;;;;;5115016;28;20528;-70